CHH7203 ZGGG-ZSOF
Flight info
| Callsign | CHH7203 |
|---|---|
| Flight time | 1h 25m |
| Altitude | 33100 |
| Route | K0870S1010 MIKIP1 MIKIP A461 BUBDA/K0867S1040 W56 REBIS/K0861S1070 W56 IDPOG A581 WHA R343 MIDOX MID01A |
| Aircraft | B38M/M-SDE1FGHILORVWXY/HB1 |
Departure
| Time | 2026-04-23 03:21 |
|---|---|
| Airport | Guangzhou Baiyun International Airport (ZGGG) |
Arrival
| Time | 2026-04-23 04:46 |
|---|---|
| Airport | Hefei Xinqiao International Airport (ZSOF) |
| Time | Latitude | Longitude | Altitude | Speed | Heading |
|---|---|---|---|---|---|
| 2026-04-23 02:53 | 23.38952 | 113.29333 | 61 ft | 0 kts | 1° |
| 2026-04-23 02:54 | 23.38950 | 113.29333 | 56 ft | 0 kts | 1° |
| 2026-04-23 03:06 | 23.38938 | 113.29333 | 56 ft | 4 kts | 1° |
| 2026-04-23 03:06 | 23.38911 | 113.29333 | 59 ft | 4 kts | 1° |
| 2026-04-23 03:06 | 23.38887 | 113.29333 | 58 ft | 4 kts | 348° |
| 2026-04-23 03:06 | 23.38869 | 113.29346 | 57 ft | 4 kts | 287° |
| 2026-04-23 03:07 | 23.38867 | 113.29369 | 59 ft | 1 kts | 271° |
| 2026-04-23 03:07 | 23.38867 | 113.29373 | 60 ft | 0 kts | 271° |
| 2026-04-23 03:11 | 23.38867 | 113.29369 | 61 ft | 1 kts | 271° |
| 2026-04-23 03:11 | 23.38867 | 113.29351 | 57 ft | 3 kts | 271° |
| 2026-04-23 03:11 | 23.38868 | 113.29318 | 61 ft | 5 kts | 271° |
| 2026-04-23 03:11 | 23.38868 | 113.29271 | 61 ft | 7 kts | 270° |
| 2026-04-23 03:12 | 23.38868 | 113.29204 | 61 ft | 11 kts | 270° |
| 2026-04-23 03:12 | 23.38871 | 113.29106 | 61 ft | 14 kts | 272° |
| 2026-04-23 03:12 | 23.38831 | 113.29036 | 59 ft | 10 kts | 206° |
| 2026-04-23 03:12 | 23.38762 | 113.29015 | 53 ft | 11 kts | 194° |
| 2026-04-23 03:13 | 23.38683 | 113.28993 | 55 ft | 12 kts | 194° |
| 2026-04-23 03:13 | 23.38593 | 113.28971 | 60 ft | 14 kts | 194° |
| 2026-04-23 03:13 | 23.38495 | 113.28942 | 57 ft | 15 kts | 194° |
| 2026-04-23 03:13 | 23.38387 | 113.28912 | 55 ft | 17 kts | 194° |
| 2026-04-23 03:14 | 23.38268 | 113.28879 | 59 ft | 18 kts | 194° |
| 2026-04-23 03:14 | 23.38141 | 113.28845 | 55 ft | 20 kts | 193° |
| 2026-04-23 03:14 | 23.38077 | 113.28848 | 58 ft | 0 kts | 116° |
| 2026-04-23 03:14 | 23.38077 | 113.28852 | 58 ft | 2 kts | 100° |
| 2026-04-23 03:15 | 23.38072 | 113.28886 | 56 ft | 8 kts | 100° |
| 2026-04-23 03:15 | 23.38052 | 113.28981 | 58 ft | 17 kts | 104° |
| 2026-04-23 03:15 | 23.38020 | 113.29119 | 59 ft | 19 kts | 104° |
| 2026-04-23 03:15 | 23.37987 | 113.29262 | 57 ft | 19 kts | 104° |
| 2026-04-23 03:16 | 23.37955 | 113.29402 | 57 ft | 19 kts | 104° |
| 2026-04-23 03:16 | 23.37925 | 113.29536 | 57 ft | 18 kts | 104° |
| 2026-04-23 03:16 | 23.37872 | 113.29773 | 60 ft | 14 kts | 103° |
| 2026-04-23 03:17 | 23.37849 | 113.29867 | 59 ft | 12 kts | 105° |
| 2026-04-23 03:17 | 23.37830 | 113.29944 | 59 ft | 9 kts | 103° |
| 2026-04-23 03:17 | 23.37817 | 113.30000 | 59 ft | 7 kts | 104° |
| 2026-04-23 03:17 | 23.37808 | 113.30040 | 57 ft | 4 kts | 104° |
| 2026-04-23 03:18 | 23.37800 | 113.30078 | 60 ft | 8 kts | 104° |
| 2026-04-23 03:18 | 23.37772 | 113.30164 | 59 ft | 15 kts | 125° |
| 2026-04-23 03:18 | 23.37693 | 113.30226 | 58 ft | 13 kts | 153° |
| 2026-04-23 03:18 | 23.37641 | 113.30284 | 59 ft | 9 kts | 109° |
| 2026-04-23 03:19 | 23.37628 | 113.30339 | 60 ft | 7 kts | 104° |
| 2026-04-23 03:19 | 23.37614 | 113.30400 | 60 ft | 12 kts | 104° |
| 2026-04-23 03:19 | 23.37593 | 113.30506 | 61 ft | 14 kts | 88° |
| 2026-04-23 03:19 | 23.37644 | 113.30555 | 57 ft | 9 kts | 10° |
| 2026-04-23 03:20 | 23.37729 | 113.30575 | 53 ft | 20 kts | 13° |
| 2026-04-23 03:20 | 23.38059 | 113.30663 | 54 ft | 88 kts | 13° |
| 2026-04-23 03:20 | 23.38900 | 113.30891 | 61 ft | 158 kts | 13° |
| 2026-04-23 03:20 | 23.40136 | 113.31229 | 282 ft | 204 kts | 11° |
| 2026-04-23 03:21 | 23.41569 | 113.31591 | 823 ft | 206 kts | 11° |
| 2026-04-23 03:21 | 23.42922 | 113.31962 | 941 ft | 197 kts | 14° |
| 2026-04-23 03:21 | 23.44280 | 113.32344 | 1382 ft | 204 kts | 14° |
| 2026-04-23 03:21 | 23.45685 | 113.32684 | 2152 ft | 212 kts | 12° |
| 2026-04-23 03:22 | 23.47146 | 113.33051 | 2783 ft | 220 kts | 18° |
| 2026-04-23 03:22 | 23.48629 | 113.33583 | 3379 ft | 229 kts | 17° |
| 2026-04-23 03:22 | 23.50177 | 113.34106 | 3991 ft | 239 kts | 15° |
| 2026-04-23 03:22 | 23.51817 | 113.34637 | 4605 ft | 254 kts | 15° |
| 2026-04-23 03:23 | 23.53579 | 113.35187 | 5206 ft | 272 kts | 14° |
| 2026-04-23 03:23 | 23.55455 | 113.35768 | 5830 ft | 286 kts | 14° |
| 2026-04-23 03:23 | 23.57383 | 113.36404 | 6351 ft | 293 kts | 14° |
| 2026-04-23 03:23 | 23.59332 | 113.37005 | 7090 ft | 289 kts | 12° |
| 2026-04-23 03:24 | 23.61312 | 113.37565 | 7779 ft | 300 kts | 12° |
| 2026-04-23 03:24 | 23.63367 | 113.37944 | 8160 ft | 300 kts | 4° |
| 2026-04-23 03:24 | 23.65440 | 113.38177 | 8505 ft | 299 kts | 360° |
| 2026-04-23 03:24 | 23.67523 | 113.38370 | 9123 ft | 302 kts | 2° |
| 2026-04-23 03:25 | 23.69626 | 113.38648 | 9792 ft | 306 kts | 4° |
| 2026-04-23 03:25 | 23.71742 | 113.38983 | 10373 ft | 308 kts | 5° |
| 2026-04-23 03:25 | 23.73872 | 113.39352 | 10988 ft | 312 kts | 5° |
| 2026-04-23 03:25 | 23.76022 | 113.39741 | 11613 ft | 316 kts | 5° |
| 2026-04-23 03:26 | 23.78203 | 113.40146 | 12275 ft | 320 kts | 5° |
| 2026-04-23 03:26 | 23.80406 | 113.40562 | 12930 ft | 322 kts | 5° |
| 2026-04-23 03:26 | 23.82624 | 113.40985 | 13597 ft | 325 kts | 5° |
| 2026-04-23 03:26 | 23.84865 | 113.41412 | 14204 ft | 328 kts | 5° |
| 2026-04-23 03:27 | 23.87124 | 113.41845 | 14805 ft | 331 kts | 5° |
| 2026-04-23 03:27 | 23.89401 | 113.42281 | 15421 ft | 333 kts | 5° |
| 2026-04-23 03:27 | 23.91696 | 113.42721 | 16042 ft | 336 kts | 4° |
| 2026-04-23 03:27 | 23.94007 | 113.43165 | 16670 ft | 338 kts | 4° |
| 2026-04-23 03:28 | 23.96339 | 113.43611 | 17316 ft | 341 kts | 4° |
| 2026-04-23 03:28 | 23.98677 | 113.44060 | 17984 ft | 343 kts | 4° |
| 2026-04-23 03:28 | 24.01039 | 113.44514 | 18512 ft | 348 kts | 4° |
| 2026-04-23 03:28 | 24.03447 | 113.44976 | 18629 ft | 352 kts | 4° |
| 2026-04-23 03:29 | 24.05858 | 113.45439 | 18654 ft | 351 kts | 3° |
| 2026-04-23 03:29 | 24.08253 | 113.45543 | 18643 ft | 339 kts | 346° |
| 2026-04-23 03:29 | 24.10599 | 113.45233 | 18651 ft | 341 kts | 347° |
| 2026-04-23 03:29 | 24.12956 | 113.44950 | 18651 ft | 341 kts | 347° |
| 2026-04-23 03:30 | 24.15313 | 113.44652 | 18675 ft | 341 kts | 346° |
| 2026-04-23 03:30 | 24.17667 | 113.44344 | 18661 ft | 341 kts | 346° |
| 2026-04-23 03:30 | 24.19991 | 113.44034 | 18657 ft | 341 kts | 346° |
| 2026-04-23 03:30 | 24.22342 | 113.43719 | 18664 ft | 341 kts | 346° |
| 2026-04-23 03:31 | 24.24698 | 113.43402 | 18667 ft | 341 kts | 346° |
| 2026-04-23 03:31 | 24.27049 | 113.43086 | 18669 ft | 341 kts | 346° |
| 2026-04-23 03:31 | 24.29443 | 113.42761 | 18657 ft | 355 kts | 346° |
| 2026-04-23 03:31 | 24.31950 | 113.42420 | 18671 ft | 372 kts | 347° |
| 2026-04-23 03:32 | 24.34582 | 113.42081 | 18651 ft | 390 kts | 351° |
| 2026-04-23 03:32 | 24.37369 | 113.42095 | 18681 ft | 410 kts | 356° |
| 2026-04-23 03:32 | 24.40274 | 113.42171 | 18666 ft | 425 kts | 356° |
| 2026-04-23 03:32 | 24.43286 | 113.42258 | 18659 ft | 439 kts | 357° |
| 2026-04-23 03:33 | 24.46374 | 113.42345 | 18653 ft | 450 kts | 357° |
| 2026-04-23 03:33 | 24.49531 | 113.42444 | 18686 ft | 457 kts | 357° |
| 2026-04-23 03:33 | 24.52715 | 113.42526 | 18744 ft | 459 kts | 357° |
| 2026-04-23 03:33 | 24.55920 | 113.42614 | 18894 ft | 461 kts | 357° |
| 2026-04-23 03:34 | 24.59131 | 113.42705 | 19068 ft | 462 kts | 357° |
| 2026-04-23 03:34 | 24.62342 | 113.42796 | 19219 ft | 463 kts | 357° |
| 2026-04-23 03:34 | 24.65560 | 113.42886 | 19411 ft | 463 kts | 358° |
| 2026-04-23 03:34 | 24.68774 | 113.42976 | 19597 ft | 463 kts | 358° |
| 2026-04-23 03:35 | 24.72001 | 113.43069 | 19757 ft | 464 kts | 357° |
| 2026-04-23 03:35 | 24.75233 | 113.43161 | 19934 ft | 465 kts | 357° |
| 2026-04-23 03:35 | 24.78419 | 113.43252 | 20274 ft | 463 kts | 357° |
| 2026-04-23 03:35 | 24.81634 | 113.43343 | 20646 ft | 462 kts | 357° |
| 2026-04-23 03:36 | 24.84887 | 113.43436 | 21014 ft | 461 kts | 357° |
| 2026-04-23 03:36 | 24.88045 | 113.43526 | 21374 ft | 460 kts | 357° |
| 2026-04-23 03:36 | 24.91240 | 113.43617 | 21754 ft | 459 kts | 357° |
| 2026-04-23 03:36 | 24.94429 | 113.43708 | 22153 ft | 458 kts | 356° |
| 2026-04-23 03:37 | 24.97615 | 113.43798 | 22554 ft | 458 kts | 355° |
| 2026-04-23 03:37 | 25.00803 | 113.43889 | 22955 ft | 459 kts | 355° |
| 2026-04-23 03:37 | 25.04001 | 113.43980 | 23331 ft | 459 kts | 355° |
| 2026-04-23 03:37 | 25.07198 | 113.44071 | 23723 ft | 459 kts | 355° |
| 2026-04-23 03:38 | 25.10390 | 113.44162 | 24064 ft | 459 kts | 355° |
| 2026-04-23 03:38 | 25.13588 | 113.44254 | 24402 ft | 460 kts | 354° |
| 2026-04-23 03:38 | 25.16784 | 113.44345 | 24755 ft | 459 kts | 354° |
| 2026-04-23 03:38 | 25.19979 | 113.44437 | 25108 ft | 460 kts | 354° |
| 2026-04-23 03:39 | 25.23176 | 113.44529 | 25477 ft | 459 kts | 353° |
| 2026-04-23 03:39 | 25.26364 | 113.44618 | 25836 ft | 459 kts | 352° |
| 2026-04-23 03:39 | 25.29556 | 113.44708 | 26139 ft | 457 kts | 352° |
| 2026-04-23 03:39 | 25.32715 | 113.44801 | 26719 ft | 453 kts | 352° |
| 2026-04-23 03:40 | 25.35877 | 113.44892 | 27041 ft | 456 kts | 352° |
| 2026-04-23 03:40 | 25.39046 | 113.44983 | 27474 ft | 455 kts | 351° |
| 2026-04-23 03:40 | 25.42215 | 113.45074 | 27868 ft | 457 kts | 351° |
| 2026-04-23 03:40 | 25.45395 | 113.45169 | 28263 ft | 458 kts | 351° |
| 2026-04-23 03:41 | 25.48582 | 113.45258 | 28593 ft | 459 kts | 351° |
| 2026-04-23 03:41 | 25.51783 | 113.45348 | 28864 ft | 462 kts | 351° |
| 2026-04-23 03:41 | 25.55003 | 113.45441 | 29126 ft | 464 kts | 351° |
| 2026-04-23 03:41 | 25.58245 | 113.45534 | 29310 ft | 467 kts | 350° |
| 2026-04-23 03:42 | 25.61506 | 113.45626 | 29535 ft | 470 kts | 350° |
| 2026-04-23 03:42 | 25.64772 | 113.45720 | 29797 ft | 471 kts | 351° |
| 2026-04-23 03:42 | 25.68047 | 113.45817 | 30125 ft | 472 kts | 350° |
| 2026-04-23 03:42 | 25.71352 | 113.45914 | 30263 ft | 475 kts | 350° |
| 2026-04-23 03:43 | 25.74659 | 113.46006 | 30487 ft | 476 kts | 350° |
| 2026-04-23 03:43 | 25.77974 | 113.46104 | 30716 ft | 477 kts | 350° |
| 2026-04-23 03:43 | 25.81293 | 113.46198 | 30974 ft | 478 kts | 350° |
| 2026-04-23 03:43 | 25.84631 | 113.46296 | 31108 ft | 482 kts | 350° |
| 2026-04-23 03:44 | 25.91355 | 113.46101 | 31151 ft | 490 kts | 347° |
| 2026-04-23 03:44 | 25.98226 | 113.45836 | 31109 ft | 495 kts | 347° |
| 2026-04-23 03:45 | 26.05067 | 113.45582 | 31116 ft | 495 kts | 347° |
| 2026-04-23 03:45 | 26.11997 | 113.45330 | 31120 ft | 494 kts | 347° |
| 2026-04-23 03:46 | 26.18840 | 113.45081 | 31128 ft | 496 kts | 347° |
| 2026-04-23 03:46 | 26.25733 | 113.44829 | 31124 ft | 496 kts | 347° |
| 2026-04-23 03:47 | 26.32627 | 113.44577 | 31118 ft | 495 kts | 347° |
| 2026-04-23 03:47 | 26.39516 | 113.44326 | 31134 ft | 496 kts | 347° |
| 2026-04-23 03:48 | 26.46417 | 113.44073 | 31134 ft | 496 kts | 347° |
| 2026-04-23 03:48 | 26.53312 | 113.43815 | 31136 ft | 496 kts | 347° |
| 2026-04-23 03:49 | 26.60207 | 113.43550 | 31134 ft | 496 kts | 347° |
| 2026-04-23 03:49 | 26.67097 | 113.43286 | 31150 ft | 495 kts | 346° |
| 2026-04-23 03:50 | 26.73986 | 113.43021 | 31131 ft | 495 kts | 346° |
| 2026-04-23 03:50 | 26.80873 | 113.42765 | 31178 ft | 494 kts | 346° |
| 2026-04-23 03:51 | 26.87766 | 113.42493 | 31129 ft | 495 kts | 346° |
| 2026-04-23 03:51 | 26.94657 | 113.42226 | 31146 ft | 497 kts | 346° |
| 2026-04-23 03:52 | 27.01569 | 113.41959 | 31138 ft | 497 kts | 346° |
| 2026-04-23 03:52 | 27.08482 | 113.41692 | 31129 ft | 497 kts | 346° |
| 2026-04-23 03:53 | 27.15397 | 113.41424 | 31138 ft | 497 kts | 346° |
| 2026-04-23 03:53 | 27.21142 | 113.41201 | 31172 ft | 497 kts | 346° |
| 2026-04-23 03:54 | 27.28043 | 113.40934 | 31130 ft | 496 kts | 346° |
| 2026-04-23 03:54 | 27.36109 | 113.40881 | 31146 ft | 502 kts | 349° |
| 2026-04-23 03:55 | 27.41954 | 113.40997 | 31108 ft | 501 kts | 349° |
| 2026-04-23 03:55 | 27.48925 | 113.41113 | 31167 ft | 501 kts | 349° |
| 2026-04-23 03:56 | 27.55870 | 113.41227 | 31135 ft | 499 kts | 349° |
| 2026-04-23 03:56 | 27.63934 | 113.41360 | 31138 ft | 500 kts | 349° |
| 2026-04-23 03:57 | 27.69802 | 113.41837 | 31135 ft | 505 kts | 353° |
| 2026-04-23 03:57 | 27.76813 | 113.42424 | 31167 ft | 504 kts | 353° |
| 2026-04-23 03:58 | 27.83807 | 113.43020 | 31112 ft | 504 kts | 353° |
| 2026-04-23 03:58 | 27.90756 | 113.43638 | 31148 ft | 504 kts | 353° |
| 2026-04-23 03:59 | 27.97756 | 113.44251 | 31119 ft | 504 kts | 353° |
| 2026-04-23 03:59 | 28.04754 | 113.44863 | 31154 ft | 504 kts | 353° |
| 2026-04-23 04:00 | 28.11742 | 113.45418 | 31135 ft | 503 kts | 352° |
| 2026-04-23 04:00 | 28.18709 | 113.45928 | 31149 ft | 502 kts | 352° |
| 2026-04-23 04:01 | 28.25688 | 113.46427 | 31121 ft | 502 kts | 352° |
| 2026-04-23 04:01 | 28.32659 | 113.46928 | 31138 ft | 500 kts | 352° |
| 2026-04-23 04:02 | 28.39596 | 113.47426 | 31119 ft | 499 kts | 352° |
| 2026-04-23 04:02 | 28.46529 | 113.47920 | 31121 ft | 499 kts | 352° |
| 2026-04-23 04:03 | 28.53463 | 113.48417 | 31108 ft | 499 kts | 352° |
| 2026-04-23 04:03 | 28.60399 | 113.48913 | 31131 ft | 500 kts | 352° |
| 2026-04-23 04:04 | 28.67343 | 113.49409 | 31115 ft | 500 kts | 352° |
| 2026-04-23 04:04 | 28.74292 | 113.49908 | 31121 ft | 501 kts | 352° |
| 2026-04-23 04:05 | 28.81244 | 113.50408 | 31131 ft | 500 kts | 352° |
| 2026-04-23 04:05 | 28.88192 | 113.50907 | 31131 ft | 501 kts | 352° |
| 2026-04-23 04:06 | 28.95148 | 113.51406 | 31126 ft | 502 kts | 353° |
| 2026-04-23 04:06 | 29.02120 | 113.51910 | 31118 ft | 501 kts | 352° |
| 2026-04-23 04:07 | 29.09081 | 113.52412 | 31130 ft | 501 kts | 352° |
| 2026-04-23 04:07 | 29.15992 | 113.52909 | 31119 ft | 501 kts | 352° |
| 2026-04-23 04:08 | 29.22952 | 113.53414 | 31103 ft | 501 kts | 353° |
| 2026-04-23 04:08 | 29.29929 | 113.53954 | 31120 ft | 504 kts | 353° |
| 2026-04-23 04:09 | 29.36911 | 113.54563 | 31160 ft | 503 kts | 353° |
| 2026-04-23 04:09 | 29.43877 | 113.55167 | 31116 ft | 501 kts | 353° |
| 2026-04-23 04:10 | 29.50838 | 113.55767 | 31144 ft | 502 kts | 353° |
| 2026-04-23 04:10 | 29.57767 | 113.56366 | 31129 ft | 502 kts | 353° |
| 2026-04-23 04:11 | 29.64729 | 113.56969 | 31144 ft | 500 kts | 354° |
| 2026-04-23 04:11 | 29.71658 | 113.57569 | 31134 ft | 500 kts | 354° |
| 2026-04-23 04:12 | 29.78592 | 113.58171 | 31130 ft | 500 kts | 354° |
| 2026-04-23 04:12 | 29.85522 | 113.58773 | 31131 ft | 500 kts | 354° |
| 2026-04-23 04:13 | 29.92454 | 113.59392 | 31131 ft | 502 kts | 357° |
| 2026-04-23 04:13 | 29.95908 | 113.60344 | 31115 ft | 521 kts | 12° |
| 2026-04-23 04:13 | 29.99275 | 113.61985 | 31138 ft | 526 kts | 14° |
| 2026-04-23 04:14 | 30.06016 | 113.65293 | 31144 ft | 527 kts | 15° |
| 2026-04-23 04:14 | 30.12743 | 113.68647 | 31164 ft | 527 kts | 15° |
| 2026-04-23 04:15 | 30.19461 | 113.72004 | 31132 ft | 525 kts | 15° |
| 2026-04-23 04:16 | 30.29526 | 113.77043 | 31126 ft | 525 kts | 15° |
| 2026-04-23 04:16 | 30.36237 | 113.80409 | 31165 ft | 525 kts | 15° |
| 2026-04-23 04:17 | 30.42936 | 113.83775 | 31129 ft | 524 kts | 15° |
| 2026-04-23 04:17 | 30.49628 | 113.87142 | 31128 ft | 525 kts | 15° |
| 2026-04-23 04:18 | 30.56330 | 113.90519 | 31132 ft | 525 kts | 15° |
| 2026-04-23 04:18 | 30.62857 | 113.94428 | 31117 ft | 541 kts | 32° |
| 2026-04-23 04:18 | 30.65567 | 113.97519 | 31123 ft | 553 kts | 49° |
| 2026-04-23 04:19 | 30.67689 | 114.01276 | 31136 ft | 558 kts | 55° |
| 2026-04-23 04:19 | 30.71868 | 114.08875 | 31117 ft | 558 kts | 54° |
| 2026-04-23 04:20 | 30.76049 | 114.16478 | 31119 ft | 558 kts | 54° |
| 2026-04-23 04:20 | 30.79534 | 114.24537 | 31156 ft | 561 kts | 68° |
| 2026-04-23 04:21 | 30.82342 | 114.33024 | 31122 ft | 562 kts | 68° |
| 2026-04-23 04:21 | 30.85099 | 114.41541 | 31117 ft | 562 kts | 68° |
| 2026-04-23 04:22 | 30.87864 | 114.50051 | 31129 ft | 562 kts | 68° |
| 2026-04-23 04:22 | 30.90626 | 114.58560 | 31126 ft | 562 kts | 68° |
| 2026-04-23 04:23 | 30.93363 | 114.67019 | 31123 ft | 562 kts | 68° |
| 2026-04-23 04:23 | 30.96115 | 114.75541 | 31128 ft | 561 kts | 68° |
| 2026-04-23 04:24 | 30.97141 | 114.78725 | 31116 ft | 561 kts | 68° |
| 2026-04-23 04:24 | 30.99244 | 114.85258 | 31130 ft | 561 kts | 68° |
| 2026-04-23 04:25 | 31.01978 | 114.93776 | 31138 ft | 561 kts | 68° |
| 2026-04-23 04:25 | 31.04708 | 115.02298 | 31105 ft | 561 kts | 68° |
| 2026-04-23 04:26 | 31.07432 | 115.10828 | 31124 ft | 562 kts | 68° |
| 2026-04-23 04:26 | 31.10149 | 115.19356 | 31125 ft | 561 kts | 68° |
| 2026-04-23 04:27 | 31.12848 | 115.27853 | 31107 ft | 556 kts | 68° |
| 2026-04-23 04:27 | 31.15583 | 115.36264 | 31161 ft | 555 kts | 68° |
| 2026-04-23 04:28 | 31.19677 | 115.48949 | 31114 ft | 557 kts | 68° |
| 2026-04-23 04:28 | 31.22402 | 115.57418 | 31118 ft | 558 kts | 68° |
| 2026-04-23 04:29 | 31.25126 | 115.65903 | 31125 ft | 558 kts | 68° |
| 2026-04-23 04:29 | 31.27846 | 115.74401 | 31008 ft | 559 kts | 68° |
| 2026-04-23 04:30 | 31.29202 | 115.78644 | 30394 ft | 555 kts | 68° |
| 2026-04-23 04:30 | 31.30550 | 115.82868 | 29649 ft | 553 kts | 68° |
| 2026-04-23 04:30 | 31.31892 | 115.87061 | 28902 ft | 549 kts | 68° |
| 2026-04-23 04:30 | 31.33251 | 115.91209 | 28115 ft | 540 kts | 68° |
| 2026-04-23 04:31 | 31.34573 | 115.95254 | 27392 ft | 526 kts | 68° |
| 2026-04-23 04:31 | 31.35862 | 115.99210 | 26686 ft | 514 kts | 67° |
| 2026-04-23 04:31 | 31.37119 | 116.03072 | 26008 ft | 503 kts | 68° |
| 2026-04-23 04:31 | 31.38351 | 116.06861 | 25327 ft | 493 kts | 68° |
| 2026-04-23 04:32 | 31.39557 | 116.10573 | 24664 ft | 483 kts | 68° |
| 2026-04-23 04:32 | 31.40737 | 116.14210 | 24068 ft | 474 kts | 68° |
| 2026-04-23 04:32 | 31.41897 | 116.17790 | 23413 ft | 466 kts | 68° |
| 2026-04-23 04:32 | 31.43034 | 116.21305 | 22680 ft | 459 kts | 68° |
| 2026-04-23 04:33 | 31.44159 | 116.24783 | 21952 ft | 452 kts | 68° |
| 2026-04-23 04:33 | 31.45262 | 116.28199 | 21247 ft | 445 kts | 68° |
| 2026-04-23 04:33 | 31.46348 | 116.31565 | 20567 ft | 439 kts | 69° |
| 2026-04-23 04:33 | 31.47404 | 116.34842 | 19920 ft | 432 kts | 69° |
| 2026-04-23 04:34 | 31.48472 | 116.38159 | 19264 ft | 426 kts | 69° |
| 2026-04-23 04:34 | 31.49493 | 116.41334 | 18644 ft | 419 kts | 69° |
| 2026-04-23 04:34 | 31.50511 | 116.44501 | 17985 ft | 413 kts | 69° |
| 2026-04-23 04:34 | 31.51514 | 116.47624 | 17292 ft | 406 kts | 69° |
| 2026-04-23 04:35 | 31.52501 | 116.50702 | 16613 ft | 400 kts | 69° |
| 2026-04-23 04:35 | 31.53472 | 116.53733 | 15953 ft | 394 kts | 68° |
| 2026-04-23 04:35 | 31.54426 | 116.56714 | 15308 ft | 388 kts | 69° |
| 2026-04-23 04:35 | 31.55366 | 116.59654 | 14694 ft | 382 kts | 68° |
| 2026-04-23 04:36 | 31.56310 | 116.62525 | 14100 ft | 373 kts | 63° |
| 2026-04-23 04:36 | 31.57581 | 116.65132 | 13470 ft | 365 kts | 58° |
| 2026-04-23 04:36 | 31.58840 | 116.67683 | 12816 ft | 358 kts | 59° |
| 2026-04-23 04:36 | 31.60053 | 116.70201 | 12176 ft | 351 kts | 59° |
| 2026-04-23 04:37 | 31.61233 | 116.72683 | 11557 ft | 345 kts | 59° |
| 2026-04-23 04:37 | 31.62385 | 116.75126 | 10948 ft | 339 kts | 60° |
| 2026-04-23 04:37 | 31.63515 | 116.77533 | 10346 ft | 334 kts | 60° |
| 2026-04-23 04:37 | 31.64624 | 116.79902 | 9775 ft | 329 kts | 60° |
| 2026-04-23 04:38 | 31.65718 | 116.82242 | 9168 ft | 325 kts | 60° |
| 2026-04-23 04:38 | 31.66800 | 116.84557 | 8532 ft | 322 kts | 60° |
| 2026-04-23 04:38 | 31.67871 | 116.86853 | 7918 ft | 319 kts | 61° |
| 2026-04-23 04:38 | 31.68929 | 116.89121 | 7258 ft | 315 kts | 61° |
| 2026-04-23 04:39 | 31.69973 | 116.91360 | 6699 ft | 310 kts | 61° |
| 2026-04-23 04:39 | 31.71001 | 116.93564 | 6062 ft | 306 kts | 61° |
| 2026-04-23 04:39 | 31.72011 | 116.95732 | 5455 ft | 301 kts | 61° |
| 2026-04-23 04:39 | 31.73009 | 116.97877 | 4846 ft | 296 kts | 61° |
| 2026-04-23 04:40 | 31.73994 | 116.99978 | 4232 ft | 291 kts | 60° |
| 2026-04-23 04:40 | 31.74987 | 117.01979 | 4017 ft | 273 kts | 60° |
| 2026-04-23 04:40 | 31.75904 | 117.03833 | 3996 ft | 253 kts | 60° |
| 2026-04-23 04:40 | 31.76753 | 117.05551 | 3972 ft | 233 kts | 60° |
| 2026-04-23 04:41 | 31.77277 | 117.06615 | 3901 ft | 221 kts | 60° |
| 2026-04-23 04:41 | 31.78359 | 117.08603 | 3712 ft | 216 kts | 45° |
| 2026-04-23 04:41 | 31.79170 | 117.09269 | 3598 ft | 217 kts | 24° |
| 2026-04-23 04:41 | 31.80648 | 117.09548 | 3409 ft | 219 kts | 355° |
| 2026-04-23 04:42 | 31.82087 | 117.09039 | 3233 ft | 214 kts | 335° |
| 2026-04-23 04:42 | 31.83337 | 117.08214 | 3052 ft | 195 kts | 330° |
| 2026-04-23 04:42 | 31.84433 | 117.07431 | 3005 ft | 178 kts | 331° |
| 2026-04-23 04:42 | 31.85498 | 117.06701 | 2912 ft | 177 kts | 332° |
| 2026-04-23 04:43 | 31.86558 | 117.05981 | 2693 ft | 175 kts | 332° |
| 2026-04-23 04:43 | 31.87605 | 117.05271 | 2473 ft | 170 kts | 332° |
| 2026-04-23 04:43 | 31.88600 | 117.04596 | 2286 ft | 161 kts | 332° |
| 2026-04-23 04:43 | 31.89544 | 117.03958 | 2154 ft | 153 kts | 333° |
| 2026-04-23 04:44 | 31.90462 | 117.03336 | 1910 ft | 150 kts | 333° |
| 2026-04-23 04:44 | 31.91363 | 117.02725 | 1677 ft | 149 kts | 333° |
| 2026-04-23 04:44 | 31.92260 | 117.02119 | 1470 ft | 149 kts | 332° |
| 2026-04-23 04:44 | 31.93159 | 117.01508 | 1253 ft | 149 kts | 333° |
| 2026-04-23 04:45 | 31.94057 | 117.00900 | 1052 ft | 148 kts | 332° |
| 2026-04-23 04:45 | 31.94943 | 117.00301 | 852 ft | 145 kts | 332° |
| 2026-04-23 04:45 | 31.95805 | 116.99711 | 553 ft | 142 kts | 332° |
| 2026-04-23 04:45 | 31.96643 | 116.99138 | 376 ft | 139 kts | 331° |
| 2026-04-23 04:46 | 31.97468 | 116.98574 | 264 ft | 133 kts | 331° |
| 2026-04-23 04:46 | 31.98203 | 116.98091 | 223 ft | 97 kts | 330° |
| 2026-04-23 04:46 | 31.98599 | 116.97823 | 218 ft | 41 kts | 329° |
| 2026-04-23 04:46 | 31.98811 | 116.97679 | 225 ft | 20 kts | 326° |
| 2026-04-23 04:47 | 31.98921 | 116.97574 | 228 ft | 20 kts | 315° |
| 2026-04-23 04:47 | 31.99003 | 116.97440 | 224 ft | 20 kts | 301° |
| 2026-04-23 04:47 | 31.99080 | 116.97294 | 221 ft | 21 kts | 297° |
| 2026-04-23 04:47 | 31.99149 | 116.97139 | 220 ft | 22 kts | 284° |
| 2026-04-23 04:48 | 31.99139 | 116.96961 | 222 ft | 22 kts | 257° |
| 2026-04-23 04:48 | 31.99137 | 116.96775 | 220 ft | 23 kts | 278° |
| 2026-04-23 04:48 | 31.99147 | 116.96629 | 220 ft | 15 kts | 270° |
| 2026-04-23 04:48 | 31.99146 | 116.96533 | 223 ft | 10 kts | 266° |
| 2026-04-23 04:49 | 31.99139 | 116.96440 | 222 ft | 12 kts | 263° |
| 2026-04-23 04:49 | 31.99117 | 116.96336 | 220 ft | 14 kts | 251° |
| 2026-04-23 04:49 | 31.99070 | 116.96240 | 220 ft | 14 kts | 221° |
| 2026-04-23 04:49 | 31.99011 | 116.96198 | 224 ft | 5 kts | 181° |
| 2026-04-23 04:50 | 31.98994 | 116.96212 | 220 ft | 3 kts | 126° |
| 2026-04-23 04:50 | 31.98977 | 116.96239 | 222 ft | 5 kts | 127° |
| 2026-04-23 04:50 | 31.98967 | 116.96254 | 226 ft | 2 kts | 129° |
| 2026-04-23 04:50 | 31.98964 | 116.96259 | 223 ft | 0 kts | 128° |
| 2026-04-23 04:53 | 31.88940 | 117.04366 | 2231 ft | 157 kts | 333° |
| 2026-04-23 04:54 | 31.97236 | 116.98733 | 303 ft | 136 kts | 331° |
| 2026-04-23 04:54 | 31.97959 | 116.98254 | 224 ft | 121 kts | 333° |